Garden City, MI

12:41 PM EDT on July 07, 2015 (GMT -0400)
Garden City Weather | | Change Station
CLOSE
Current Station
Personal Weather Station
Location: Garden City, MI
Elevation: 640 ft
Nearby Weather Stations

Elev 640 ft 42.32 °N, 83.35 °W | Updated 9 seconds ago

Rain
Rain
75.5 °F
Feels Like 75 °F
N
1.8
Wind Variable Wind from West
Gusts 6.9 mph

Today
High -- | Low -- °F
--% Chance of Precip.
Yesterday
High -- | Low -- °F
Precip. -- in
6:03 AM 9:12 PM
Waning Gibbous, 63% visible
Pressure 29.85 in
Visibility 7.0 miles
Clouds Scattered Clouds 2000 ft
Mostly Cloudy 3000 ft
Overcast 5500 ft
Heat Index 75 °F
Dew Point 71 °F
Humidity 87%
Rainfall 0.02 in
Snow Depth Not available.
UV 3 out of 12
Pollen .60 out of 12
Air Quality Not available.
Flu Activity Not available.
METAR KDTW 071553Z 22011KT 7SM -RA SCT020 BKN030 OVC055 25/22 A2986 RMK AO2 RAB18 SLP107 P0000 T02500222

More Conditions Fewer Conditions

Pressure 29.85 in
Visibility 7.0 miles
Clouds Scattered Clouds 2000 ft
Mostly Cloudy 3000 ft
Overcast 5500 ft
Heat Index 75 °F
Dew Point 71 °F
Humidity 87%
Rainfall 0.02 in
Snow Depth Not available.
UV 3 out of 12
Pollen .60 out of 12
Air Quality Not available.
Flu Activity Not available.
METAR KDTW 071553Z 22011KT 7SM -RA SCT020 BKN030 OVC055 25/22 A2986 RMK AO2 RAB18 SLP107 P0000 T02500222

More Conditions Fewer Conditions

10-Day Weather Forecast

×

Almanac

Astronomy

Jul. 07, 2015 Rise Set
Actual Time
Civil Twilight
Nautical Twilight
Astronomical Twilight
Moon
Length of Visible Light
Length of Day
Tomorrow will be .
, % of the Moon is Illuminated

Today's Extremes

State Highs State Lows

Community

WunderPhotos

Upload Photos

1,835,849 photos uploaded!

WunderBlogs® & News

Nearby

Air Quality

  Air Quality AQ Index Pollutant
Not available.

Snow Depth

Station Depth Elevation

Earthquake Activity

City Distance Mag. Time & Date
Minimum magnitude displayed is 2.5.

Coastal Water Temperatures

Place Temperature

Stations

Nearby Weather Stations

Station Location Temp. Windchill Dew Point Humidity Wind Precip. Elev Updated Type